sensor_id;sensor_type;location;lat;lon;timestamp;pressure;altitude;pressure_sealevel;temperature;humidity
63715;BME280;49858;48.956;9.076;2023-05-28T00:00:58;98904.56;;;19.08;75.52
63715;BME280;49858;48.956;9.076;2023-05-28T00:03:27;98903.69;;;19.14;75.13
63715;BME280;49858;48.956;9.076;2023-05-28T00:05:58;98907.75;;;19.06;75.57
63715;BME280;49858;48.956;9.076;2023-05-28T00:08:27;98903.78;;;19.04;74.86
63715;BME280;49858;48.956;9.076;2023-05-28T00:10:55;98896.28;;;18.94;75.22
63715;BME280;49858;48.956;9.076;2023-05-28T00:13:27;98903.88;;;18.86;76.55
63715;BME280;49858;48.956;9.076;2023-05-28T00:15:55;98895.16;;;18.77;77.20
63715;BME280;49858;48.956;9.076;2023-05-28T00:18:23;98895.91;;;18.92;76.67
63715;BME280;49858;48.956;9.076;2023-05-28T00:20:51;98891.31;;;18.46;79.70
63715;BME280;49858;48.956;9.076;2023-05-28T00:23:19;98894.91;;;18.46;79.98
63715;BME280;49858;48.956;9.076;2023-05-28T00:25:49;98891.25;;;18.63;79.20
63715;BME280;49858;48.956;9.076;2023-05-28T00:28:18;98888.47;;;18.56;79.37
63715;BME280;49858;48.956;9.076;2023-05-28T00:30:46;98882.97;;;18.42;80.01
63715;BME280;49858;48.956;9.076;2023-05-28T00:33:14;98893.38;;;18.31;80.45
63715;BME280;49858;48.956;9.076;2023-05-28T00:35:42;98889.75;;;18.34;80.44
63715;BME280;49858;48.956;9.076;2023-05-28T00:38:10;98880.25;;;18.24;81.35
63715;BME280;49858;48.956;9.076;2023-05-28T00:40:42;98889.31;;;18.46;79.92
63715;BME280;49858;48.956;9.076;2023-05-28T00:43:11;98886.97;;;18.41;80.25
63715;BME280;49858;48.956;9.076;2023-05-28T00:45:39;98884.25;;;18.27;81.45
63715;BME280;49858;48.956;9.076;2023-05-28T00:48:07;98888.16;;;18.40;80.63
63715;BME280;49858;48.956;9.076;2023-05-28T00:50:36;98883.88;;;18.18;82.41
63715;BME280;49858;48.956;9.076;2023-05-28T00:53:07;98880.63;;;18.33;81.66
63715;BME280;49858;48.956;9.076;2023-05-28T00:55:35;98883.03;;;18.21;82.50
63715;BME280;49858;48.956;9.076;2023-05-28T00:58:03;98877.19;;;17.90;83.41
63715;BME280;49858;48.956;9.076;2023-05-28T01:00:33;98884.72;;;17.68;86.47
63715;BME280;49858;48.956;9.076;2023-05-28T01:03:03;98886.34;;;17.83;85.06
63715;BME280;49858;48.956;9.076;2023-05-28T01:05:32;98881.94;;;18.04;84.41
63715;BME280;49858;48.956;9.076;2023-05-28T01:08:02;98877.88;;;18.26;83.42
63715;BME280;49858;48.956;9.076;2023-05-28T01:10:32;98873.47;;;18.29;82.62
63715;BME280;49858;48.956;9.076;2023-05-28T01:13:03;98867.59;;;18.02;84.06
63715;BME280;49858;48.956;9.076;2023-05-28T01:15:34;98874.44;;;17.51;87.90
63715;BME280;49858;48.956;9.076;2023-05-28T01:18:04;98878.00;;;17.76;86.67
63715;BME280;49858;48.956;9.076;2023-05-28T01:20:32;98881.56;;;17.77;86.94
63715;BME280;49858;48.956;9.076;2023-05-28T01:23:05;98870.81;;;17.86;86.21
63715;BME280;49858;48.956;9.076;2023-05-28T01:25:36;98874.81;;;17.78;86.72
63715;BME280;49858;48.956;9.076;2023-05-28T01:28:11;98879.59;;;17.77;86.36
63715;BME280;49858;48.956;9.076;2023-05-28T01:30:40;98873.22;;;17.84;86.10
63715;BME280;49858;48.956;9.076;2023-05-28T01:33:10;98874.03;;;17.45;89.04
63715;BME280;49858;48.956;9.076;2023-05-28T01:35:39;98882.38;;;17.49;89.16
63715;BME280;49858;48.956;9.076;2023-05-28T01:38:09;98874.44;;;17.22;91.57
63715;BME280;49858;48.956;9.076;2023-05-28T01:40:40;98874.44;;;17.33;90.25
63715;BME280;49858;48.956;9.076;2023-05-28T01:43:09;98866.50;;;17.42;90.16
63715;BME280;49858;48.956;9.076;2023-05-28T01:45:38;98877.22;;;17.29;91.00
63715;BME280;49858;48.956;9.076;2023-05-28T01:48:07;98870.84;;;17.36;90.33
63715;BME280;49858;48.956;9.076;2023-05-28T01:50:35;98871.66;;;17.26;91.05
63715;BME280;49858;48.956;9.076;2023-05-28T01:53:03;98860.94;;;17.31;90.39
63715;BME280;49858;48.956;9.076;2023-05-28T01:55:31;98876.81;;;17.24;91.04
63715;BME280;49858;48.956;9.076;2023-05-28T01:58:00;98867.66;;;17.05;93.12
63715;BME280;49858;48.956;9.076;2023-05-28T02:00:28;98870.84;;;17.04;93.13
63715;BME280;49858;48.956;9.076;2023-05-28T02:02:56;98869.66;;;17.08;92.79
63715;BME280;49858;48.956;9.076;2023-05-28T02:05:24;98866.88;;;17.30;91.40
63715;BME280;49858;48.956;9.076;2023-05-28T02:07:52;98866.91;;;17.37;90.85
63715;BME280;49858;48.956;9.076;2023-05-28T02:10:23;98867.69;;;17.41;90.79
63715;BME280;49858;48.956;9.076;2023-05-28T02:12:51;98872.06;;;17.38;90.95
63715;BME280;49858;48.956;9.076;2023-05-28T02:15:21;98869.25;;;17.06;92.80
63715;BME280;49858;48.956;9.076;2023-05-28T02:17:49;98863.69;;;17.03;93.72
63715;BME280;49858;48.956;9.076;2023-05-28T02:20:17;98858.91;;;16.85;95.68
63715;BME280;49858;48.956;9.076;2023-05-28T02:22:46;98856.94;;;16.93;94.62
63715;BME280;49858;48.956;9.076;2023-05-28T02:25:14;98855.75;;;16.80;96.39
63715;BME280;49858;48.956;9.076;2023-05-28T02:27:42;98847.75;;;16.75;96.32
63715;BME280;49858;48.956;9.076;2023-05-28T02:30:12;98854.06;;;16.65;97.24
63715;BME280;49858;48.956;9.076;2023-05-28T02:32:42;98862.81;;;16.67;97.39
63715;BME280;49858;48.956;9.076;2023-05-28T02:35:10;98854.06;;;16.65;97.37
63715;BME280;49858;48.956;9.076;2023-05-28T02:37:39;98854.94;;;16.86;96.09
63715;BME280;49858;48.956;9.076;2023-05-28T02:40:08;98847.00;;;16.85;95.71
63715;BME280;49858;48.956;9.076;2023-05-28T02:42:36;98849.00;;;16.84;97.11
63715;BME280;49858;48.956;9.076;2023-05-28T02:45:05;98850.09;;;16.58;98.14
63715;BME280;49858;48.956;9.076;2023-05-28T02:47:33;98850.16;;;16.83;96.47
63715;BME280;49858;48.956;9.076;2023-05-28T02:50:04;98850.88;;;16.59;98.49
63715;BME280;49858;48.956;9.076;2023-05-28T02:52:51;98854.03;;;16.47;100.00
63715;BME280;49858;48.956;9.076;2023-05-28T02:55:18;98857.13;;;16.31;100.00
63715;BME280;49858;48.956;9.076;2023-05-28T02:57:47;98853.94;;;16.25;100.00
63715;BME280;49858;48.956;9.076;2023-05-28T03:00:16;98850.34;;;16.18;100.00
63715;BME280;49858;48.956;9.076;2023-05-28T03:02:44;98844.38;;;16.12;100.00
63715;BME280;49858;48.956;9.076;2023-05-28T03:05:13;98850.00;;;16.37;100.00
63715;BME280;49858;48.956;9.076;2023-05-28T03:07:41;98852.63;;;15.98;100.00
63715;BME280;49858;48.956;9.076;2023-05-28T03:10:09;98854.78;;;16.36;100.00
63715;BME280;49858;48.956;9.076;2023-05-28T03:12:37;98865.97;;;16.58;100.00
63715;BME280;49858;48.956;9.076;2023-05-28T03:15:06;98861.16;;;16.51;100.00
63715;BME280;49858;48.956;9.076;2023-05-28T03:17:34;98866.63;;;16.19;100.00
63715;BME280;49858;48.956;9.076;2023-05-28T03:20:02;98858.28;;;16.19;100.00
63715;BME280;49858;48.956;9.076;2023-05-28T03:22:33;98861.34;;;15.96;100.00
63715;BME280;49858;48.956;9.076;2023-05-28T03:25:00;98865.56;;;15.76;100.00
63715;BME280;49858;48.956;9.076;2023-05-28T03:27:29;98870.09;;;15.47;100.00
63715;BME280;49858;48.956;9.076;2023-05-28T03:29:57;98874.84;;;15.46;100.00
63715;BME280;49858;48.956;9.076;2023-05-28T03:32:40;98871.25;;;15.42;100.00
63715;BME280;49858;48.956;9.076;2023-05-28T03:35:08;98876.69;;;15.28;100.00
63715;BME280;49858;48.956;9.076;2023-05-28T03:37:38;98864.22;;;15.04;100.00
63715;BME280;49858;48.956;9.076;2023-05-28T03:40:07;98870.47;;;15.42;100.00
63715;BME280;49858;48.956;9.076;2023-05-28T03:42:35;98866.31;;;15.66;100.00
63715;BME280;49858;48.956;9.076;2023-05-28T03:45:05;98860.25;;;15.49;100.00
63715;BME280;49858;48.956;9.076;2023-05-28T03:47:33;98868.13;;;15.44;100.00
63715;BME280;49858;48.956;9.076;2023-05-28T03:50:02;98874.00;;;15.35;100.00
63715;BME280;49858;48.956;9.076;2023-05-28T03:52:31;98868.47;;;14.94;100.00
63715;BME280;49858;48.956;9.076;2023-05-28T03:55:00;98866.44;;;14.88;100.00
63715;BME280;49858;48.956;9.076;2023-05-28T03:57:28;98870.63;;;15.12;100.00
63715;BME280;49858;48.956;9.076;2023-05-28T03:59:57;98865.13;;;15.19;100.00
63715;BME280;49858;48.956;9.076;2023-05-28T04:02:25;98869.09;;;15.18;100.00
63715;BME280;49858;48.956;9.076;2023-05-28T04:04:53;98870.31;;;15.24;100.00
63715;BME280;49858;48.956;9.076;2023-05-28T04:07:21;98880.16;;;15.18;100.00
63715;BME280;49858;48.956;9.076;2023-05-28T04:09:49;98872.81;;;15.36;100.00
63715;BME280;49858;48.956;9.076;2023-05-28T04:12:19;98873.88;;;15.21;100.00
63715;BME280;49858;48.956;9.076;2023-05-28T04:14:47;98876.69;;;15.28;100.00
63715;BME280;49858;48.956;9.076;2023-05-28T04:17:15;98874.91;;;14.65;100.00
63715;BME280;49858;48.956;9.076;2023-05-28T04:19:44;98866.53;;;14.27;100.00
63715;BME280;49858;48.956;9.076;2023-05-28T04:22:12;98867.91;;;14.41;100.00
63715;BME280;49858;48.956;9.076;2023-05-28T04:24:40;98875.31;;;14.33;100.00
63715;BME280;49858;48.956;9.076;2023-05-28T04:27:08;98868.41;;;14.16;100.00
63715;BME280;49858;48.956;9.076;2023-05-28T04:29:37;98866.94;;;14.26;100.00
63715;BME280;49858;48.956;9.076;2023-05-28T04:32:05;98877.97;;;14.56;100.00
63715;BME280;49858;48.956;9.076;2023-05-28T04:34:38;98871.75;;;14.66;100.00
63715;BME280;49858;48.956;9.076;2023-05-28T04:37:07;98865.81;;;14.64;100.00
63715;BME280;49858;48.956;9.076;2023-05-28T04:39:35;98877.38;;;14.73;100.00
63715;BME280;49858;48.956;9.076;2023-05-28T04:42:04;98884.47;;;14.71;100.00
63715;BME280;49858;48.956;9.076;2023-05-28T04:44:34;98891.53;;;15.05;100.00
63715;BME280;49858;48.956;9.076;2023-05-28T04:47:05;98885.41;;;15.26;100.00
63715;BME280;49858;48.956;9.076;2023-05-28T04:49:33;98893.88;;;15.44;100.00
63715;BME280;49858;48.956;9.076;2023-05-28T04:52:02;98883.75;;;15.66;100.00
63715;BME280;49858;48.956;9.076;2023-05-28T04:54:29;98888.66;;;15.87;100.00
63715;BME280;49858;48.956;9.076;2023-05-28T04:56:57;98892.00;;;16.21;100.00
63715;BME280;49858;48.956;9.076;2023-05-28T04:59:28;98881.63;;;16.11;100.00
63715;BME280;49858;48.956;9.076;2023-05-28T05:01:56;98886.03;;;16.23;100.00
63715;BME280;49858;48.956;9.076;2023-05-28T05:04:26;98893.34;;;16.59;100.00
63715;BME280;49858;48.956;9.076;2023-05-28T05:06:54;98882.97;;;16.46;100.00
63715;BME280;49858;48.956;9.076;2023-05-28T05:09:22;98886.94;;;16.45;100.00
63715;BME280;49858;48.956;9.076;2023-05-28T05:11:50;98886.47;;;16.25;100.00
63715;BME280;49858;48.956;9.076;2023-05-28T05:14:18;98890.13;;;16.50;100.00
63715;BME280;49858;48.956;9.076;2023-05-28T05:16:47;98892.47;;;16.38;100.00
63715;BME280;49858;48.956;9.076;2023-05-28T05:19:15;98891.31;;;16.49;100.00
63715;BME280;49858;48.956;9.076;2023-05-28T05:21:45;98893.69;;;16.47;100.00
63715;BME280;49858;48.956;9.076;2023-05-28T05:24:13;98892.03;;;16.32;100.00
63715;BME280;49858;48.956;9.076;2023-05-28T05:26:42;98885.00;;;16.59;100.00
63715;BME280;49858;48.956;9.076;2023-05-28T05:29:09;98892.50;;;16.45;100.00
63715;BME280;49858;48.956;9.076;2023-05-28T05:31:37;98886.28;;;16.76;100.00
63715;BME280;49858;48.956;9.076;2023-05-28T05:34:07;98888.69;;;16.96;100.00
63715;BME280;49858;48.956;9.076;2023-05-28T05:36:56;98885.16;;;17.20;100.00
63715;BME280;49858;48.956;9.076;2023-05-28T05:39:25;98890.72;;;17.45;100.00
63715;BME280;49858;48.956;9.076;2023-05-28T05:42:16;98887.13;;;17.70;100.00
63715;BME280;49858;48.956;9.076;2023-05-28T05:44:48;98893.09;;;17.43;100.00
63715;BME280;49858;48.956;9.076;2023-05-28T05:47:16;98894.69;;;17.55;100.00
63715;BME280;49858;48.956;9.076;2023-05-28T05:49:43;98892.28;;;17.64;100.00
63715;BME280;49858;48.956;9.076;2023-05-28T05:52:13;98899.06;;;17.70;100.00
63715;BME280;49858;48.956;9.076;2023-05-28T05:54:41;98899.84;;;17.63;100.00
63715;BME280;49858;48.956;9.076;2023-05-28T05:57:10;98891.50;;;17.71;100.00
63715;BME280;49858;48.956;9.076;2023-05-28T05:59:38;98901.06;;;17.73;100.00
63715;BME280;49858;48.956;9.076;2023-05-28T06:02:06;98895.47;;;17.48;100.00
63715;BME280;49858;48.956;9.076;2023-05-28T06:04:34;98897.84;;;17.50;100.00
63715;BME280;49858;48.956;9.076;2023-05-28T06:07:23;98904.22;;;17.86;100.00
63715;BME280;49858;48.956;9.076;2023-05-28T06:10:11;98893.84;;;17.97;100.00
63715;BME280;49858;48.956;9.076;2023-05-28T06:12:41;98895.47;;;17.73;100.00
63715;BME280;49858;48.956;9.076;2023-05-28T06:15:09;98892.31;;;17.75;100.00
63715;BME280;49858;48.956;9.076;2023-05-28T06:17:38;98885.94;;;17.85;100.00
63715;BME280;49858;48.956;9.076;2023-05-28T06:20:07;98888.28;;;17.97;100.00
63715;BME280;49858;48.956;9.076;2023-05-28T06:22:38;98889.44;;;18.14;99.31
63715;BME280;49858;48.956;9.076;2023-05-28T06:25:06;98893.69;;;18.47;97.21
63715;BME280;49858;48.956;9.076;2023-05-28T06:27:35;98893.47;;;18.02;100.00
63715;BME280;49858;48.956;9.076;2023-05-28T06:30:04;98898.06;;;18.48;97.59
63715;BME280;49858;48.956;9.076;2023-05-28T06:32:32;98895.69;;;18.47;97.77
63715;BME280;49858;48.956;9.076;2023-05-28T06:35:00;98890.41;;;18.77;98.12
63715;BME280;49858;48.956;9.076;2023-05-28T06:37:29;98900.78;;;18.62;100.00
63715;BME280;49858;48.956;9.076;2023-05-28T06:40:02;98896.72;;;18.81;98.92
63715;BME280;49858;48.956;9.076;2023-05-28T06:42:36;98896.97;;;19.12;96.36
63715;BME280;49858;48.956;9.076;2023-05-28T06:45:12;98902.34;;;19.37;94.04
63715;BME280;49858;48.956;9.076;2023-05-28T06:47:41;98897.72;;;19.20;95.96
63715;BME280;49858;48.956;9.076;2023-05-28T06:50:09;98891.94;;;19.41;96.50
63715;BME280;49858;48.956;9.076;2023-05-28T06:52:37;98894.47;;;19.77;93.97
63715;BME280;49858;48.956;9.076;2023-05-28T06:55:08;98899.06;;;19.94;91.98
63715;BME280;49858;48.956;9.076;2023-05-28T06:57:51;98896.88;;;20.12;89.44
63715;BME280;49858;48.956;9.076;2023-05-28T07:00:51;98905.41;;;19.98;89.53
63715;BME280;49858;48.956;9.076;2023-05-28T07:03:34;98905.75;;;19.07;96.18
63715;BME280;49858;48.956;9.076;2023-05-28T07:06:18;98906.56;;;19.59;88.16
63715;BME280;49858;48.956;9.076;2023-05-28T07:08:46;98905.66;;;20.14;86.48
63715;BME280;49858;48.956;9.076;2023-05-28T07:11:16;98910.38;;;20.17;86.10
63715;BME280;49858;48.956;9.076;2023-05-28T07:13:45;98907.75;;;20.75;80.82
63715;BME280;49858;48.956;9.076;2023-05-28T07:16:14;98903.81;;;20.69;82.40
63715;BME280;49858;48.956;9.076;2023-05-28T07:18:44;98898.81;;;21.41;79.54
63715;BME280;49858;48.956;9.076;2023-05-28T07:21:12;98903.84;;;20.96;82.88
63715;BME280;49858;48.956;9.076;2023-05-28T07:23:44;98900.50;;;20.47;86.02
63715;BME280;49858;48.956;9.076;2023-05-28T07:26:12;98900.00;;;20.18;86.80
63715;BME280;49858;48.956;9.076;2023-05-28T07:28:41;98900.22;;;20.68;85.50
63715;BME280;49858;48.956;9.076;2023-05-28T07:31:09;98903.00;;;21.53;77.45
63715;BME280;49858;48.956;9.076;2023-05-28T07:33:37;98907.28;;;22.05;76.62
63715;BME280;49858;48.956;9.076;2023-05-28T07:36:05;98897.50;;;22.56;72.51
63715;BME280;49858;48.956;9.076;2023-05-28T07:38:35;98901.69;;;22.05;78.14
63715;BME280;49858;48.956;9.076;2023-05-28T07:41:03;98905.31;;;22.65;71.80
63715;BME280;49858;48.956;9.076;2023-05-28T07:43:48;98898.00;;;22.51;69.31
63715;BME280;49858;48.956;9.076;2023-05-28T07:46:19;98904.66;;;22.77;70.39
63715;BME280;49858;48.956;9.076;2023-05-28T07:48:52;98898.75;;;23.44;61.65
63715;BME280;49858;48.956;9.076;2023-05-28T07:51:29;98903.59;;;22.71;70.04
63715;BME280;49858;48.956;9.076;2023-05-28T07:54:03;98909.06;;;21.48;79.82
63715;BME280;49858;48.956;9.076;2023-05-28T07:56:31;98894.94;;;22.82;73.17
63715;BME280;49858;48.956;9.076;2023-05-28T07:59:02;98896.59;;;22.79;68.46
63715;BME280;49858;48.956;9.076;2023-05-28T08:01:31;98903.13;;;23.61;62.03
63715;BME280;49858;48.956;9.076;2023-05-28T08:04:03;98904.94;;;23.19;66.94
63715;BME280;49858;48.956;9.076;2023-05-28T08:06:35;98899.59;;;23.90;61.16
63715;BME280;49858;48.956;9.076;2023-05-28T08:09:05;98894.19;;;23.66;58.05
63715;BME280;49858;48.956;9.076;2023-05-28T08:11:38;98899.38;;;24.71;57.89
63715;BME280;49858;48.956;9.076;2023-05-28T08:14:08;98897.50;;;24.94;55.12
63715;BME280;49858;48.956;9.076;2023-05-28T08:16:38;98888.97;;;25.10;54.26
63715;BME280;49858;48.956;9.076;2023-05-28T08:19:16;98887.44;;;24.67;54.67
63715;BME280;49858;48.956;9.076;2023-05-28T08:21:46;98885.59;;;25.28;48.42
63715;BME280;49858;48.956;9.076;2023-05-28T08:24:15;98885.13;;;25.42;49.22
63715;BME280;49858;48.956;9.076;2023-05-28T08:26:45;98893.88;;;24.39;52.81
63715;BME280;49858;48.956;9.076;2023-05-28T08:29:14;98876.94;;;25.22;50.54
63715;BME280;49858;48.956;9.076;2023-05-28T08:31:48;98889.56;;;23.76;55.39
63715;BME280;49858;48.956;9.076;2023-05-28T08:34:22;98882.88;;;24.44;57.52
63715;BME280;49858;48.956;9.076;2023-05-28T08:36:51;98877.31;;;25.59;54.02
63715;BME280;49858;48.956;9.076;2023-05-28T08:39:26;98869.72;;;25.82;52.23
63715;BME280;49858;48.956;9.076;2023-05-28T08:41:55;98870.63;;;25.18;54.03
63715;BME280;49858;48.956;9.076;2023-05-28T08:44:27;98873.44;;;26.13;53.42
63715;BME280;49858;48.956;9.076;2023-05-28T08:46:55;98859.22;;;26.61;44.42
63715;BME280;49858;48.956;9.076;2023-05-28T08:49:53;98867.66;;;25.95;45.31
63715;BME280;49858;48.956;9.076;2023-05-28T08:52:31;98853.88;;;26.85;51.14
63715;BME280;49858;48.956;9.076;2023-05-28T08:55:00;98852.44;;;26.49;46.58
63715;BME280;49858;48.956;9.076;2023-05-28T08:57:29;98859.56;;;26.94;46.15
63715;BME280;49858;48.956;9.076;2023-05-28T09:00:03;98853.16;;;27.34;44.23
63715;BME280;49858;48.956;9.076;2023-05-28T09:02:55;98845.38;;;28.30;44.00
63715;BME280;49858;48.956;9.076;2023-05-28T09:05:23;98847.13;;;27.99;40.91
63715;BME280;49858;48.956;9.076;2023-05-28T09:07:51;98846.63;;;28.56;43.60
63715;BME280;49858;48.956;9.076;2023-05-28T09:10:21;98847.72;;;28.31;46.66
63715;BME280;49858;48.956;9.076;2023-05-28T09:12:57;98838.22;;;25.96;57.45
63715;BME280;49858;48.956;9.076;2023-05-28T09:15:27;98846.19;;;25.76;50.39
63715;BME280;49858;48.956;9.076;2023-05-28T09:17:58;98840.13;;;25.99;50.66
63715;BME280;49858;48.956;9.076;2023-05-28T09:20:27;98837.53;;;28.43;44.04
63715;BME280;49858;48.956;9.076;2023-05-28T09:22:58;98837.56;;;28.85;37.61
63715;BME280;49858;48.956;9.076;2023-05-28T09:25:49;98829.34;;;28.26;41.85
63715;BME280;49858;48.956;9.076;2023-05-28T09:28:25;98821.59;;;29.06;40.06
63715;BME280;49858;48.956;9.076;2023-05-28T09:31:02;98831.25;;;26.44;48.78
63715;BME280;49858;48.956;9.076;2023-05-28T09:33:30;98832.66;;;28.16;43.18
63715;BME280;49858;48.956;9.076;2023-05-28T09:35:59;98825.53;;;25.06;48.22
63715;BME280;49858;48.956;9.076;2023-05-28T09:38:37;98830.53;;;26.93;49.11
63715;BME280;49858;48.956;9.076;2023-05-28T09:41:16;98826.06;;;28.37;42.57
63715;BME280;49858;48.956;9.076;2023-05-28T09:43:44;98824.13;;;26.62;45.27
63715;BME280;49858;48.956;9.076;2023-05-28T09:46:14;98824.59;;;27.50;41.93
63715;BME280;49858;48.956;9.076;2023-05-28T09:48:45;98825.28;;;29.54;36.34
63715;BME280;49858;48.956;9.076;2023-05-28T09:51:14;98822.28;;;28.31;41.45
63715;BME280;49858;48.956;9.076;2023-05-28T09:53:43;98816.72;;;29.64;35.09
63715;BME280;49858;48.956;9.076;2023-05-28T09:56:12;98814.03;;;30.38;32.68
63715;BME280;49858;48.956;9.076;2023-05-28T09:58:44;98822.75;;;29.81;36.84
63715;BME280;49858;48.956;9.076;2023-05-28T10:01:22;98818.50;;;29.52;36.90
63715;BME280;49858;48.956;9.076;2023-05-28T10:04:00;98814.84;;;30.83;34.52
63715;BME280;49858;48.956;9.076;2023-05-28T10:06:30;98810.41;;;30.67;35.00
63715;BME280;49858;48.956;9.076;2023-05-28T10:08:58;98811.53;;;29.05;39.73
63715;BME280;49858;48.956;9.076;2023-05-28T10:11:29;98819.59;;;28.88;39.85
63715;BME280;49858;48.956;9.076;2023-05-28T10:13:58;98809.47;;;29.63;36.76
63715;BME280;49858;48.956;9.076;2023-05-28T10:16:28;98811.88;;;30.62;35.60
63715;BME280;49858;48.956;9.076;2023-05-28T10:18:59;98823.19;;;29.31;38.45
63715;BME280;49858;48.956;9.076;2023-05-28T10:21:28;98822.28;;;28.40;39.38
63715;BME280;49858;48.956;9.076;2023-05-28T10:23:56;98815.22;;;30.46;35.86
63715;BME280;49858;48.956;9.076;2023-05-28T10:26:24;98812.63;;;29.65;35.87
63715;BME280;49858;48.956;9.076;2023-05-28T10:28:53;98810.06;;;30.05;37.74
63715;BME280;49858;48.956;9.076;2023-05-28T10:31:23;98813.84;;;32.43;30.63
63715;BME280;49858;48.956;9.076;2023-05-28T10:33:52;98816.41;;;30.84;36.28
63715;BME280;49858;48.956;9.076;2023-05-28T10:36:20;98812.72;;;32.09;32.70
63715;BME280;49858;48.956;9.076;2023-05-28T10:38:57;98818.41;;;32.09;33.30
63715;BME280;49858;48.956;9.076;2023-05-28T10:41:30;98809.41;;;29.24;38.52
63715;BME280;49858;48.956;9.076;2023-05-28T10:44:05;98809.22;;;31.38;33.68
63715;BME280;49858;48.956;9.076;2023-05-28T10:46:37;98811.28;;;31.02;34.53
63715;BME280;49858;48.956;9.076;2023-05-28T10:49:09;98806.47;;;31.85;34.71
63715;BME280;49858;48.956;9.076;2023-05-28T10:51:51;98804.84;;;30.13;37.26
63715;BME280;49858;48.956;9.076;2023-05-28T10:54:24;98804.31;;;29.61;37.33
63715;BME280;49858;48.956;9.076;2023-05-28T10:57:10;98810.16;;;31.29;35.85
63715;BME280;49858;48.956;9.076;2023-05-28T10:59:42;98802.19;;;32.73;31.75
63715;BME280;49858;48.956;9.076;2023-05-28T11:02:11;98806.22;;;30.33;35.22
63715;BME280;49858;48.956;9.076;2023-05-28T11:04:40;98801.31;;;30.33;36.21
63715;BME280;49858;48.956;9.076;2023-05-28T11:07:08;98796.06;;;33.66;29.83
63715;BME280;49858;48.956;9.076;2023-05-28T11:09:36;98796.06;;;34.65;26.99
63715;BME280;49858;48.956;9.076;2023-05-28T11:12:05;98793.41;;;34.39;28.89
63715;BME280;49858;48.956;9.076;2023-05-28T11:14:34;98787.75;;;34.50;28.79
63715;BME280;49858;48.956;9.076;2023-05-28T11:17:10;98789.84;;;32.24;31.24
63715;BME280;49858;48.956;9.076;2023-05-28T11:19:44;98785.00;;;31.63;31.28
63715;BME280;49858;48.956;9.076;2023-05-28T11:22:13;98787.44;;;32.74;30.75
63715;BME280;49858;48.956;9.076;2023-05-28T11:24:53;98787.41;;;33.00;28.07
63715;BME280;49858;48.956;9.076;2023-05-28T11:27:22;98787.34;;;32.63;29.42
63715;BME280;49858;48.956;9.076;2023-05-28T11:29:52;98780.44;;;34.49;28.52
63715;BME280;49858;48.956;9.076;2023-05-28T11:32:20;98774.19;;;32.66;28.20
63715;BME280;49858;48.956;9.076;2023-05-28T11:34:50;98772.16;;;34.51;27.34
63715;BME280;49858;48.956;9.076;2023-05-28T11:37:22;98777.59;;;34.71;28.53
63715;BME280;49858;48.956;9.076;2023-05-28T11:39:54;98778.44;;;33.67;27.11
63715;BME280;49858;48.956;9.076;2023-05-28T11:42:23;98768.56;;;36.17;24.28
63715;BME280;49858;48.956;9.076;2023-05-28T11:44:52;98766.31;;;36.40;24.49
63715;BME280;49858;48.956;9.076;2023-05-28T11:47:20;98764.56;;;35.21;25.71
63715;BME280;49858;48.956;9.076;2023-05-28T11:49:50;98766.84;;;35.33;24.28
63715;BME280;49858;48.956;9.076;2023-05-28T11:52:20;98767.94;;;34.29;25.35
63715;BME280;49858;48.956;9.076;2023-05-28T11:54:53;98767.88;;;33.90;26.02
63715;BME280;49858;48.956;9.076;2023-05-28T11:57:22;98757.97;;;35.43;23.53
63715;BME280;49858;48.956;9.076;2023-05-28T11:59:55;98755.91;;;35.49;25.46
63715;BME280;49858;48.956;9.076;2023-05-28T12:02:23;98759.72;;;35.68;24.41
63715;BME280;49858;48.956;9.076;2023-05-28T12:05:02;98751.63;;;34.58;25.41
63715;BME280;49858;48.956;9.076;2023-05-28T12:07:34;98748.97;;;35.86;24.75
63715;BME280;49858;48.956;9.076;2023-05-28T12:10:04;98753.56;;;36.35;22.65
63715;BME280;49858;48.956;9.076;2023-05-28T12:12:34;98744.19;;;37.01;22.33
63715;BME280;49858;48.956;9.076;2023-05-28T12:15:04;98739.22;;;37.50;20.31
63715;BME280;49858;48.956;9.076;2023-05-28T12:17:35;98744.38;;;35.71;22.01
63715;BME280;49858;48.956;9.076;2023-05-28T12:20:29;98747.69;;;34.95;22.98
63715;BME280;49858;48.956;9.076;2023-05-28T12:23:02;98738.03;;;33.26;24.70
63715;BME280;49858;48.956;9.076;2023-05-28T12:25:47;98737.94;;;33.03;27.00
63715;BME280;49858;48.956;9.076;2023-05-28T12:28:16;98728.16;;;33.21;25.02
63715;BME280;49858;48.956;9.076;2023-05-28T12:30:46;98752.03;;;33.24;25.65
63715;BME280;49858;48.956;9.076;2023-05-28T12:33:17;98733.75;;;32.36;25.50
63715;BME280;49858;48.956;9.076;2023-05-28T12:35:46;98736.28;;;33.40;24.65
63715;BME280;49858;48.956;9.076;2023-05-28T12:38:14;98722.81;;;34.56;24.21
63715;BME280;49858;48.956;9.076;2023-05-28T12:40:42;98709.13;;;36.83;21.59
63715;BME280;49858;48.956;9.076;2023-05-28T12:43:10;98728.59;;;35.42;23.65
63715;BME280;49858;48.956;9.076;2023-05-28T12:45:38;98724.16;;;36.35;21.83
63715;BME280;49858;48.956;9.076;2023-05-28T12:48:06;98716.03;;;36.09;22.03
63715;BME280;49858;48.956;9.076;2023-05-28T12:50:35;98717.25;;;36.79;22.30
63715;BME280;49858;48.956;9.076;2023-05-28T12:53:04;98711.00;;;35.79;22.03
63715;BME280;49858;48.956;9.076;2023-05-28T12:55:32;98708.06;;;35.91;20.93
63715;BME280;49858;48.956;9.076;2023-05-28T12:58:00;98710.09;;;36.01;21.58
63715;BME280;49858;48.956;9.076;2023-05-28T13:00:28;98700.38;;;36.46;19.87
63715;BME280;49858;48.956;9.076;2023-05-28T13:02:56;98712.44;;;37.99;19.90
63715;BME280;49858;48.956;9.076;2023-05-28T13:05:25;98712.88;;;36.48;19.80
63715;BME280;49858;48.956;9.076;2023-05-28T13:07:52;98701.72;;;37.80;20.07
63715;BME280;49858;48.956;9.076;2023-05-28T13:10:22;98703.06;;;36.93;21.24
63715;BME280;49858;48.956;9.076;2023-05-28T13:12:50;98706.09;;;35.05;22.99
63715;BME280;49858;48.956;9.076;2023-05-28T13:15:18;98702.63;;;35.34;22.87